• Join FlightAware (Why Join?)
  • Login
  • US Flag 
11:55AM EDT


 

Airport Tracker/Info


-or-


 

Live Flight TrackerFlight Track Log ✈ UAL33 ✈ 24-Jul-2013 ✈ KIAH - KORD

Flight Track Log - Related Links

Times and Time Zones

All times are in EDT time to prevent confusion due to time zone crossing. See the UAL33 flight status page for this flight to view local times or setup timezone preferences in your user account.

Time Position Orientation Groundspeed Altitude Reporting Facility
EDT Latitude Longitude Course Direction KTS MPH feet Rate Location/Type
06:27PM 29.9550 -95.3393 267° West 170 196 900  Level FlightAware ADS-B
06:27PM 29.9485 -95.3394 181° South 169 194 1,200 1,980 Climbing FlightAware ADS-B
06:27PM 29.9433 -95.3417 201° Southwest 172 198 1,400 1,620 Climbing FlightAware ADS-B
06:27PM 29.9410 -95.3435 214° Southwest 178 205 1,500 1,500 Climbing FlightAware ADS-B
06:27PM 29.9388 -95.3461 226° Southwest 182 209 1,600 1,500 Climbing FlightAware ADS-B
06:27PM 29.9364 -95.3500 235° Southwest 188 216 1,700 1,500 Climbing FlightAware ADS-B
06:27PM 29.9352 -95.3534 248° West 190 219 1,800 2,460 Climbing FlightAware ADS-B
06:27PM 29.9342 -95.3608 261° West 192 221 2,200 2,700 Climbing FlightAware ADS-B
06:27PM 29.9344 -95.3647 273° West 191 220 2,300 3,000 Climbing FlightAware ADS-B
06:28PM 29.9355 -95.3696 285° West 190 219 2,600 2,640 Climbing FlightAware ADS-B
06:28PM 29.9369 -95.3727 298° West 191 220 2,700 2,520 Climbing FlightAware ADS-B
06:28PM 29.9387 -95.3757 305° West 191 220 2,900 3,420 Climbing FlightAware ADS-B
06:28PM 29.9409 -95.3784 313° West 193 222 3,100 2,700 Climbing FlightAware ADS-B
06:28PM 29.9460 -95.3824 326° Northwest 196 226 3,400 2,160 Climbing FlightAware ADS-B
06:28PM 29.9499 -95.3843 337° Northwest 198 228 3,500 1,680 Climbing FlightAware ADS-B
06:28PM 29.9526 -95.3851 346° North 199 229 3,600 1,980 Climbing FlightAware ADS-B
06:28PM 29.9555 -95.3857 350° North 201 231 3,700 1,200 Climbing FlightAware ADS-B
06:28PM 29.9620 -95.3864 355° North 210 242 3,800 1,500 Climbing FlightAware ADS-B
06:29PM 30.0168 -95.3916 355° North 273 314 5,100 2,100 Climbing FlightAware ADS-B
06:29PM 30.0359 -95.3932 356° North 274 315 6,000 3,000 Climbing FlightAware ADS-B
06:29PM 30.0498 -95.3943 356° North 283 326 6,400 2,940 Climbing FlightAware ADS-B
06:30PM 30.1115 -95.3974 358° North 293 337 8,800 3,000 Climbing FlightAware ADS-B
06:30PM 30.1294 -95.3982 358° North 294 338 9,400 2,820 Climbing FlightAware ADS-B
06:31PM 30.1637 -95.4003 357° North 302 348 10,600 2,700 Climbing FlightAware ADS-B
06:31PM 30.1746 -95.4013 355° North 306 352 10,900 1,860 Climbing FlightAware ADS-B
06:31PM 30.1949 -95.4064 343° North 318 366 11,300 1,680 Climbing FlightAware ADS-B
06:32PM 30.2584 -95.4430 331° Northwest 363 418 12,600 1,740 Climbing FlightAware ADS-B
06:32PM 30.3024 -95.4759 327° Northwest 391 450 13,500 2,460 Climbing FlightAware ADS-B
06:34PM 30.4508 -95.5881 326° Northwest 419 482 17,700 2,340 Climbing FlightAware ADS-B
06:34PM 30.5017 -95.6272 327° Northwest 439 505 18,400 1,380 Climbing FlightAware ADS-B
06:35PM 30.5456 -95.6560 332° Northwest 453 521 19,000 1,620 Climbing FlightAware ADS-B
06:35PM 30.6146 -95.6922 336° Northwest 470 541 20,000 1,920 Climbing FlightAware ADS-B
06:36PM 30.7354 -95.7586 334° Northwest 480 552 22,100 1,740 Climbing FlightAware ADS-B
06:38PM 30.9256 -95.8614 335° Northwest 501 577 24,500 1,920 Climbing FlightAware ADS-B
06:39PM 31.0510 -95.9291 335° Northwest 488 562 27,100 2,280 Climbing FlightAware ADS-B
06:39PM 31.0866 -95.9477 336° Northwest 492 566 27,500 1,500 Climbing FlightAware ADS-B
06:40PM 31.1174 -95.9612 339° North 493 567 27,900 1,680 Climbing FlightAware ADS-B
06:40PM 31.1471 -95.9717 343° North 494 568 28,300 1,680 Climbing FlightAware ADS-B
06:40PM 31.1621 -95.9763 345° North 495 570 28,500 1,500 Climbing FlightAware ADS-B
06:43PM 31.5508 -96.0678 349° North 504 580 32,700 1,440 Climbing FlightAware ADS-B
06:45PM 31.8538 -96.1392 349° North 507 583 35,800 1,320 Climbing FlightAware ADS-B
06:46PM 32.0365 -96.1825 349° North 503 579 37,500 1,260 Climbing FlightAware ADS-B
06:47PM 32.1550 -96.2100 349° North 496 571 38,600 1,200 Climbing FlightAware
06:47PM 32.1696 -96.2125 352° North 496 571 38,700 420 Climbing FlightAware ADS-B
06:48PM 32.2796 -96.2192 360° North 496 571 39,000 360 Climbing FlightAware ADS-B
06:48PM 32.2864 -96.2193 359° North 495 570 39,000  Level FlightAware ADS-B
06:49PM 32.4370 -96.2210 359° North 494 568 39,000  Level FlightAware
06:50PM 32.5200 -96.2220 359° North 495 570 39,000  Level FlightAware
06:50PM 32.6110 -96.2230 359° North 497 572 39,000  Level FlightAware
06:51PM 32.7100 -96.2240 360° North 495 570 39,000  Level FlightAware
06:52PM 32.8910 -96.2260 360° North 493 567 39,000  Level FlightAware
06:53PM 32.9830 -96.2270 359° North 492 566 39,000  Level FlightAware
06:54PM 33.0680 -96.2280 359° North 490 564 39,000  Level FlightAware
06:54PM 33.1560 -96.2300 359° North 490 564 39,000  Level FlightAware
06:55PM 33.2390 -96.2310 359° North 488 562 39,000  Level FlightAware
06:56PM 33.3380 -96.2320 360° North 491 565 39,000  Level FlightAware
06:57PM 33.4440 -96.2330 360° North 491 565 39,000  Level FlightAware
06:57PM 33.5330 -96.2300 North 492 566 39,000 180 Level FlightAware
06:58PM 33.6300 -96.2030 13° North 497 572 39,300 600 Climbing FlightAware
06:59PM 33.7260 -96.1700 16° North 495 570 39,900 840 Climbing FlightAware
06:59PM 33.8050 -96.1430 16° North 491 565 40,400 780 Climbing FlightAware
07:00PM 33.8880 -96.1150 16° North 489 563 40,900 420 Climbing FlightAware
07:01PM 33.9840 -96.0820 16° North 485 558 41,000 60 Climbing FlightAware
07:01PM 34.0810 -96.0490 16° North 484 557 41,000  Level FlightAware
07:02PM 34.1690 -96.0180 16° North 485 558 41,000  Level FlightAware
07:03PM 34.2550 -95.9890 16° North 487 560 41,000  Level FlightAware
07:03PM 34.3460 -95.9570 16° North 486 559 41,000  Level FlightAware
07:04PM 34.4240 -95.9310 15° North 485 558 41,000  Level FlightAware
07:05PM 34.5170 -95.8980 16° North 487 560 41,000  Level FlightAware
07:05PM 34.6110 -95.8660 16° North 487 560 41,000  Level FlightAware
07:06PM 34.6800 -95.8420 16° North 488 562 41,000  Level FlightAware
07:07PM 34.7730 -95.8090 16° North 489 563 41,000  Level FlightAware
07:07PM 34.8620 -95.7620 23° Northeast 500 575 41,000  Level FlightAware
07:08PM 34.9250 -95.6940 41° Northeast 509 586 41,000  Level FlightAware
07:09PM 34.9910 -95.6180 43° Northeast 509 586 41,000  Level FlightAware
07:09PM 35.0570 -95.5420 43° Northeast 509 586 41,000  Level FlightAware
07:10PM 35.1370 -95.4480 44° Northeast 509 586 41,000  Level FlightAware
07:11PM 35.1890 -95.3870 44° Northeast 509 586 41,000  Level FlightAware
07:11PM 35.2680 -95.2930 44° Northeast 511 588 41,000  Level FlightAware
07:12PM 35.3520 -95.1940 44° Northeast 510 587 41,000  Level FlightAware
07:13PM 35.4150 -95.1200 44° Northeast 509 586 41,000  Level FlightAware
07:13PM 35.4840 -95.0380 44° Northeast 511 588 41,000  Level FlightAware
07:14PM 35.5450 -94.9660 44° Northeast 512 589 41,000  Level FlightAware
07:15PM 35.6360 -94.8570 44° Northeast 510 587 41,000  Level FlightAware
07:16PM 35.6990 -94.7820 44° Northeast 511 588 41,000  Level FlightAware
07:16PM 35.7810 -94.6840 44° Northeast 511 588 41,000  Level FlightAware
07:17PM 35.8500 -94.6020 44° Northeast 511 588 41,000  Level FlightAware
07:18PM 35.9250 -94.5120 44° Northeast 512 589 41,000  Level FlightAware
07:18PM 35.9930 -94.4290 45° Northeast 513 590 41,000  Level FlightAware
07:19PM 36.0600 -94.3480 44° Northeast 514 592 41,000  Level FlightAware
07:20PM 36.1630 -94.2230 44° Northeast 515 593 41,000  Level FlightAware
07:21PM 36.2610 -94.1150 42° Northeast 507 583 41,000  Level FlightAware
07:22PM 36.3490 -94.0500 31° Northeast 502 578 41,000  Level FlightAware
07:22PM 36.3910 -94.0210 29° Northeast 502 578 41,000  Level FlightAware
07:23PM 36.4900 -93.9510 30° Northeast 502 578 41,000  Level FlightAware
07:24PM 36.5720 -93.8930 30° Northeast 500 575 41,000  Level FlightAware
07:24PM 36.6590 -93.8320 29° Northeast 500 575 41,000  Level FlightAware
07:25PM 36.7370 -93.7770 29° Northeast 502 578 41,000  Level FlightAware
07:26PM 36.8280 -93.7120 30° Northeast 502 578 41,000  Level FlightAware
07:26PM 36.9110 -93.6530 30° Northeast 499 574 41,000  Level FlightAware
07:27PM 36.9810 -93.6030 30° Northeast 497 572 41,000  Level FlightAware
07:28PM 37.0620 -93.5450 30° Northeast 499 574 41,000  Level FlightAware
07:28PM 37.1490 -93.4830 30° Northeast 496 571 41,000  Level FlightAware
07:29PM 37.2120 -93.4380 30° Northeast 493 567 41,000  Level FlightAware
07:30PM 37.3000 -93.3740 30° Northeast 494 568 41,000  Level FlightAware
07:30PM 37.3770 -93.3140 32° Northeast 495 570 41,000  Level FlightAware
07:31PM 37.4440 -93.2530 36° Northeast 485 558 41,000  Level FlightAware
07:32PM 37.5210 -93.1810 37° Northeast 470 541 41,000  Level FlightAware
07:32PM 37.5930 -93.1160 36° Northeast 467 537 41,000  Level FlightAware
07:33PM 37.6620 -93.0510 37° Northeast 469 540 41,000  Level FlightAware
07:34PM 37.7420 -92.9770 36° Northeast 472 543 41,000  Level FlightAware
07:34PM 37.8120 -92.9110 37° Northeast 471 542 41,000  Level FlightAware
07:35PM 37.8860 -92.8430 36° Northeast 474 545 41,000  Level FlightAware
07:36PM 37.9580 -92.7750 37° Northeast 476 548 41,000  Level FlightAware
07:36PM 38.0200 -92.7170 36° Northeast 477 549 41,000  Level FlightAware
07:37PM 38.1000 -92.6410 37° Northeast 476 548 41,000  Level FlightAware
07:38PM 38.1680 -92.5770 36° Northeast 473 544 41,000  Level FlightAware
07:38PM 38.2420 -92.5210 31° Northeast 449 517 41,000  Level FlightAware
07:39PM 38.3290 -92.4870 17° North 442 509 41,000  Level FlightAware
07:40PM 38.4010 -92.4600 16° North 440 506 41,000  Level FlightAware
07:41PM 38.4850 -92.4310 15° North 441 507 41,000  Level FlightAware
07:41PM 38.5510 -92.4090 15° North 441 507 41,000  Level FlightAware
07:42PM 38.6110 -92.3880 15° North 441 507 41,000  Level FlightAware
07:43PM 38.6910 -92.3600 15° North 441 507 41,000  Level FlightAware
07:43PM 38.7800 -92.3200 19° North 447 514 41,000  Level FlightAware
07:44PM 38.8600 -92.2850 19° North 447 514 41,000  Level FlightAware
07:44PM 38.8800 -92.1880 75° East 472 543 41,000  Level FlightAware
07:44PM 38.9000 -92.1620 45° Northeast 472 543 41,000  Level FlightAware
07:45PM 38.9550 -92.0890 46° Northeast 474 545 41,000  Level FlightAware
07:46PM 39.0380 -91.9810 45° Northeast 476 548 41,000  Level FlightAware
07:47PM 39.1020 -91.8950 46° Northeast 478 550 41,000  Level FlightAware
07:47PM 39.1610 -91.8170 46° Northeast 475 547 41,000  Level FlightAware
07:48PM 39.2200 -91.7380 46° Northeast 475 547 41,000  Level FlightAware
07:49PM 39.2890 -91.6460 46° Northeast 462 532 41,000  Level FlightAware
07:50PM 39.3740 -91.5330 46° Northeast 462 532 41,000 -360 Level FlightAware
07:50PM 39.4290 -91.4580 46° Northeast 463 533 40,500 -1,020 Descending FlightAware
07:51PM 39.5010 -91.3620 46° Northeast 471 542 39,500 -1,740 Descending FlightAware
07:52PM 39.5940 -91.2370 46° Northeast 483 556 37,400 -1,740 Descending FlightAware
07:53PM 39.6680 -91.1360 46° Northeast 479 551 36,500 -1,200 Descending FlightAware
07:53PM 39.7280 -91.0620 43° Northeast 471 542 35,700 -960 Descending FlightAware
07:54PM 39.8280 -90.9600 38° Northeast 456 525 35,000 -480 Descending FlightAware
07:55PM 39.8920 -90.8960 37° Northeast 448 516 35,000  Level FlightAware
07:56PM 39.9670 -90.8200 38° Northeast 448 516 35,000  Level FlightAware
07:57PM 40.0570 -90.7290 38° Northeast 453 521 35,000 -360 Level FlightAware
07:57PM 40.1200 -90.6650 38° Northeast 455 524 34,500 -1,380 Descending FlightAware
07:58PM 40.1970 -90.5870 38° Northeast 453 521 33,100 -1,080 Descending FlightAware
07:59PM 40.2600 -90.5230 38° Northeast 441 507 33,000 -180 Descending FlightAware
08:00PM 40.3390 -90.4420 38° Northeast 445 512 32,900 -1,080 Descending FlightAware
08:00PM 40.4000 -90.3790 38° Northeast 444 511 31,500 -2,040 Descending FlightAware
08:01PM 40.4660 -90.3120 38° Northeast 447 514 30,200 -1,440 Descending FlightAware
08:02PM 40.5330 -90.2430 38° Northeast 451 519 29,600 -840 Descending FlightAware
08:02PM 40.5970 -90.1770 38° Northeast 447 514 29,100 -900 Descending FlightAware
08:03PM 40.6600 -90.1110 38° Northeast 447 514 28,500 -1,020 Descending FlightAware
08:04PM 40.7230 -90.0460 38° Northeast 433 498 27,800 -960 Descending FlightAware
08:04PM 40.7850 -89.9810 38° Northeast 425 489 27,300 -840 Descending FlightAware
08:05PM 40.8530 -89.9110 38° Northeast 444 511 26,700 -900 Descending FlightAware
08:06PM 40.9180 -89.8430 38° Northeast 438 504 26,100 -900 Descending FlightAware
08:06PM 40.9840 -89.7730 39° Northeast 438 504 25,500 -900 Descending FlightAware
08:07PM 41.0490 -89.7050 38° Northeast 439 505 24,900 -840 Descending FlightAware
08:08PM 41.1190 -89.6310 39° Northeast 434 499 24,300 -660 Descending FlightAware
08:08PM 41.1750 -89.5490 48° Northeast 444 511 24,000 -1,140 Descending FlightAware
08:09PM 41.2110 -89.4620 61° Northeast 440 506 22,900 -1,920 Descending FlightAware
08:10PM 41.2490 -89.3660 62° Northeast 431 496 21,500 -2,100 Descending FlightAware
08:10PM 41.2890 -89.2680 61° Northeast 423 487 20,000 -2,160 Descending FlightAware
08:11PM 41.3210 -89.1890 62° Northeast 416 479 18,800 -2,220 Descending FlightAware
08:12PM 41.3580 -89.0950 62° Northeast 412 474 17,200 -2,280 Descending FlightAware
08:12PM 41.3940 -89.0050 62° Northeast 402 463 15,700 -2,160 Descending FlightAware
08:13PM 41.4320 -88.9110 62° Northeast 392 451 14,200 -2,100 Descending FlightAware
08:14PM 41.4660 -88.8240 62° Northeast 385 443 12,800 -2,100 Descending FlightAware
08:14PM 41.5020 -88.7340 62° Northeast 379 436 11,300 -1,380 Descending FlightAware
08:15PM 41.5330 -88.6540 63° Northeast 359 413 10,900 -300 Descending FlightAware
08:16PM 41.5650 -88.5750 62° Northeast 314 361 10,900 -180 Level FlightAware
08:16PM 41.5880 -88.5170 62° Northeast 298 343 10,700 -780 Descending FlightAware
08:17PM 41.6200 -88.4490 58° Northeast 291 335 9,900 -1,080 Descending FlightAware
08:17PM 41.6300 -88.4310 53° Northeast 288 331 9,700 -1,200 Descending FlightAware
08:18PM 41.6490 -88.3980 52° Northeast 283 326 9,200 -1,200 Descending FlightAware
08:18PM 41.6750 -88.3540 52° Northeast 283 326 8,600 -1,200 Descending FlightAware
08:19PM 41.6980 -88.3180 49° Northeast 283 326 8,000 -1,080 Descending FlightAware
08:19PM 41.7120 -88.3080 28° Northeast 273 314 7,900 -240 Descending FlightAware
08:19PM 41.7320 -88.3050 North 257 296 7,900  Level FlightAware
08:20PM 41.7640 -88.3070 357° North 238 274 7,900  Level FlightAware
08:20PM 41.7810 -88.3070 360° North 235 270 7,900  Level FlightAware
08:20PM 41.8110 -88.3090 357° North 233 268 7,900  Level FlightAware
08:21PM 41.8330 -88.3100 358° North 212 244 7,900  Level FlightAware
08:21PM 41.8570 -88.3110 358° North 200 230 7,900 -120 Level FlightAware
08:22PM 41.8800 -88.3140 354° North 197 227 7,800 -420 Descending FlightAware
08:22PM 41.8920 -88.3290 317° Northwest 196 226 7,600 -1,020 Descending FlightAware
08:22PM 41.9010 -88.3610 291° West 199 229 7,100 -1,080 Descending FlightAware
08:23PM 41.9090 -88.3710 317° Northwest 198 228 6,900 -1,020 Descending FlightAware
08:23PM 41.9190 -88.3750 343° North 196 226 6,700 -1,020 Descending FlightAware
08:23PM 41.9360 -88.3640 26° Northeast 200 230 6,300 -1,140 Descending FlightAware
08:23PM 41.9430 -88.3460 62° Northeast 202 232 6,000 -900 Descending FlightAware
08:24PM 41.9530 -88.3130 68° East 197 227 5,700 -780 Descending FlightAware
08:24PM 41.9620 -88.2800 70° East 194 223 5,300 -900 Descending FlightAware
08:25PM 41.9680 -88.2500 75° East 193 222 4,900 -840 Descending FlightAware
08:25PM 41.9680 -88.2190 90° East 192 221 4,600 -840 Descending FlightAware
08:26PM 41.9680 -88.1810 90° East 188 216 4,100 -960 Descending FlightAware
08:26PM 41.9680 -88.1500 90° East 189 217 3,700 -1,020 Descending FlightAware
08:27PM 41.9680 -88.1310 90° East 190 219 3,400 -960 Descending FlightAware
08:27PM 41.9690 -88.0860 88° East 174 200 2,800 -1,020 Descending FlightAware
08:28PM 41.9690 -88.0560 90° East 154 177 2,300 -960 Descending FlightAware
08:28PM 41.9690 -88.0390 90° East 144 166 2,100 -780 Descending FlightAware
08:28PM 41.9690 -88.0140 90° East 142 163 1,700 -780 Descending FlightAware
08:29PM 41.9690 -87.9870 90° East 145 167 1,400 -720 Descending FlightAware
08:29PM 41.9690 -87.9700 90° East 144 166 1,100 -780 Descending FlightAware
08:30PM 41.9690 -87.9390 90° East 143 165 700 -420 Descending FlightAware
08:30PM 41.9690 -87.9200 90° East 143 165 700  Level FlightAware